Airfield :
LOGIN :

Register | Disclaimer

   EN    FR    IT 

 










Legend :    VFR   Marginal VFR   IFR   Intensive IFR   Very Intensive IFR
Visi :
Ceiling :
>= 8 km
>= 3000ft
5 to 8 km
1000 to 3000 ft
1500m to 5 km
500 to 1000 ft
800 to 1500m
200 to 500 ft
< 800m
< 200 ft
Symbols :   Thunderstorms  Fog  Heavy snow  Heavy precipitations  Wind > 20 kt
SIGMETs :     Misc.  Thunderstorms  Icing  Turbulence  Mountain Waves  Volcanic Ashes







- Airport Elevation : 202 ft
- IATA code : SQZ


EGXP - RAF Scampton

CURRENT METAR :
  • 161130Z 29015KT 9999 -RA FEW007 BKN011 07/06 Q1000 GRN

EXPIRED METARs :
  • 161109Z 23016KT 5000 SHRA BKN012 BKN018 BKN029 09/07 Q0999 GRN
  • 161050Z 23018KT 9999 SCT016 BKN026 09/07 Q0999 WHT
  • 160950Z 22013KT 9999 SCT024 BKN037 08/07 Q1000 WHT
  • 160850Z 21014KT 9999 FEW015 BKN060 08/07 Q1000 BLU

TAF TAF EGXP
Valid from the 16 at 12:00 until the 16 at 17:00 UTC


161052Z 1612/1617 22015KT 9999 -RA SCT018
PROB40
TEMPO 1612/1614 29017G27KT 4000 RA SCT012
BECMG 1614/1616 25012KT NSW FEW018
No reported NOTAMs for that airfield.



MET'MAP, your aeronautical weather chart ! - Copyright ORBIFLY December 2007 - Disclaimer

ORBIFLY MET'MAP TEAM :

Programming & Development : Alexandra Zaïnal
Concept & Development : Baudouin d'Aumeries
Co-Development & Prog : Marc-Olivier Méhu
Technical & hardware support : Manuel Goepfert

Contact : metmap@orbifly.com




SOURCES & CREDITS :

   NOAA